Golden, CO (80402)

8:10 AM MDT on August 28, 2014 (GMT -0600)
Lookout Pointe | Change Station
CLOSE
Current Station
Personal Weather Station
Location: Golden, CO
Elevation: 5940 ft
Nearby Weather Stations

Elev 5940 ft 39.75 °N, 105.23 °W | Updated 10 seconds ago

Partly Cloudy
Partly Cloudy
63.1 °F
Feels Like 63.1 °F
N
1.0
Wind Variable Wind from ESE
Gusts 6.0 mph

Today
High -- | Low -- °F
--% Chance of Precip.
Yesterday
High -- | Low -- °F
Precip. -- in
6:25 AM 7:38 PM
Waxing Crescent, 8% visible
Pressure 30.15 in
Visibility 50.0 miles
Clouds Few 6000 ft
Scattered Clouds 12000 ft
Mostly Cloudy 20000 ft
Dew Point 49 °F
Humidity 59%
Rainfall 0.00 in
Snow Depth Not available.
UV 1 out of 12
Pollen 8.30 out of 12
Ozone Good
PM2.5 Good
Flu Activity Not available.
METAR KBJC 281353Z 00000KT 50SM FEW060 SCT120 BKN200 14/09 A3015

More Conditions Fewer Conditions

Pressure 30.15 in
Visibility 50.0 miles
Clouds Few 6000 ft
Scattered Clouds 12000 ft
Mostly Cloudy 20000 ft
Dew Point 49 °F
Humidity 59%
Rainfall 0.00 in
Snow Depth Not available.
UV 1 out of 12
Pollen 8.30 out of 12
Ozone Good
PM2.5 Good
Flu Activity Not available.
METAR KBJC 281353Z 00000KT 50SM FEW060 SCT120 BKN200 14/09 A3015

More Conditions Fewer Conditions

10-Day Weather Forecast

Almanac

Astronomy

Aug. 28, 2014 Rise Set
Actual Time 6:25 AM MDT 7:38 PM MDT
Civil Twilight 5:57 AM MDT 8:06 PM MDT
Nautical Twilight 5:23 AM MDT 8:39 PM MDT
Astronomical Twilight 4:48 AM MDT 9:14 PM MDT
Moon 9:19 AM MDT 9:04 PM MDT
Length of Visible Light 14h 08m
Length of Day
13h 12m
Tomorrow will be 2m 29s shorter.
Waxing Crescent, 8% of the Moon is Illuminated
Today
Waxing Crescent
Sep 2
First Quarter
Sep 8
Full
Sep 15
Last Quarter
Sep 24
New

Today's Extremes

State Highs State Lows

Community

WunderPhotos

Upload Photos

1,747,958 photos uploaded!

Nearby

Air Quality

  Air Quality AQ Index Pollutant
Yesterday Good
OZONE
Yesterday Good
PM10
Current Good
OZONE
Current Good
PM2.5
Thursday Good
OZONE
Thursday Good
PM2.5

Snow Depth

Station Depth Elevation
Echo Lake 0 in 10600 ft
Niwot 1 in 9910 ft
University Camp 1 in 10300 ft
Berthoud Summit 0 in 11300 ft
Jackwhacker Gulch 0 in 10960 ft

Earthquake Activity

City Distance Mag. Time & Date
No recent earthquake activity has been reported nearby.
Minimum magnitude displayed is 2.5.

Coastal Water Temperatures

Place Temperature
No Stations Reporting

Nearby Weather Stations